createdAt,value
2023-03-11T00:00:48.703Z,100.00
2023-03-11T00:04:53.250Z,100.00
2023-03-11T00:08:56.363Z,100.00
2023-03-11T00:12:59.899Z,100.00
2023-03-11T00:17:02.962Z,100.00
2023-03-11T00:21:16.081Z,100.00
2023-03-11T00:25:20.300Z,100.00
2023-03-11T00:29:23.442Z,100.00
2023-03-11T00:33:26.935Z,100.00
2023-03-11T00:37:31.472Z,100.00
2023-03-11T00:41:35.162Z,100.00
2023-03-11T00:45:38.404Z,100.00
2023-03-11T00:49:41.600Z,100.00
2023-03-11T00:53:46.226Z,100.00
2023-03-11T00:57:52.333Z,100.00
2023-03-11T01:01:55.522Z,100.00
2023-03-11T01:05:58.659Z,100.00
2023-03-11T01:10:03.257Z,100.00
2023-03-11T01:14:09.081Z,100.00
2023-03-11T01:18:12.512Z,100.00
2023-03-11T01:22:15.591Z,100.00
2023-03-11T01:26:20.126Z,100.00
2023-03-11T01:30:25.883Z,100.00
2023-03-11T01:34:29.010Z,100.00
2023-03-11T01:38:32.616Z,100.00
2023-03-11T01:42:37.442Z,100.00
2023-03-11T01:47:14.729Z,100.00
2023-03-11T01:51:24.926Z,100.00
2023-03-11T01:55:29.656Z,100.00
2023-03-11T01:59:38.989Z,100.00
2023-03-11T02:03:42.870Z,100.00
2023-03-11T02:07:46.591Z,100.00
2023-03-11T02:11:53.736Z,100.00
2023-03-11T02:16:00.759Z,100.00
2023-03-11T02:20:15.439Z,100.00
2023-03-11T02:24:25.499Z,100.00
2023-03-11T02:28:33.212Z,100.00
2023-03-11T02:32:36.730Z,100.00
2023-03-11T02:36:48.022Z,100.00
2023-03-11T02:40:56.714Z,100.00
2023-03-11T02:45:05.332Z,100.00
2023-03-11T02:49:09.462Z,100.00
2023-03-11T02:53:14.713Z,100.00
2023-03-11T02:57:18.154Z,100.00
2023-03-11T03:01:24.271Z,100.00
2023-03-11T03:05:27.857Z,100.00
2023-03-11T03:09:37.089Z,100.00
2023-03-11T03:13:40.359Z,100.00
2023-03-11T03:17:43.605Z,100.00
2023-03-11T03:21:47.141Z,100.00
2023-03-11T03:25:51.677Z,100.00
2023-03-11T03:29:55.891Z,100.00
2023-03-11T03:33:59.106Z,100.00
2023-03-11T03:38:03.001Z,100.00
2023-03-11T03:42:08.344Z,100.00
2023-03-11T03:46:15.990Z,100.00
2023-03-11T03:50:23.482Z,100.00
2023-03-11T03:54:28.501Z,100.00
2023-03-11T03:58:33.676Z,100.00
2023-03-11T04:02:37.114Z,100.00
2023-03-11T04:06:40.258Z,100.00
2023-03-11T04:10:44.034Z,100.00
2023-03-11T04:14:48.918Z,100.00
2023-03-11T04:18:52.605Z,100.00
2023-03-11T04:22:57.164Z,100.00
2023-03-11T04:27:01.088Z,100.00
2023-03-11T04:31:06.338Z,100.00
2023-03-11T04:35:10.841Z,100.00
2023-03-11T04:39:14.102Z,100.00
2023-03-11T04:43:19.603Z,100.00
2023-03-11T04:47:24.044Z,100.00
2023-03-11T04:51:27.525Z,100.00
2023-03-11T04:55:30.944Z,100.00
2023-03-11T04:59:34.185Z,100.00
2023-03-11T05:03:39.065Z,100.00
2023-03-11T05:07:43.018Z,100.00
2023-03-11T05:11:47.077Z,100.00
2023-03-11T05:15:53.436Z,100.00
2023-03-11T05:19:58.586Z,100.00
2023-03-11T05:24:07.903Z,100.00
2023-03-11T05:28:11.022Z,100.00
2023-03-11T05:32:20.360Z,100.00
2023-03-11T05:36:26.408Z,100.00
2023-03-11T05:40:29.888Z,100.00
2023-03-11T05:44:33.391Z,100.00
2023-03-11T05:48:37.518Z,100.00
2023-03-11T05:52:42.313Z,100.00
2023-03-11T05:56:46.670Z,100.00
2023-03-11T06:00:50.507Z,100.00
2023-03-11T06:04:53.874Z,100.00
2023-03-11T06:08:58.882Z,100.00
2023-03-11T06:13:04.784Z,100.00
2023-03-11T06:17:12.688Z,100.00
2023-03-11T06:21:18.937Z,100.00
2023-03-11T06:25:23.413Z,100.00
2023-03-11T06:29:26.894Z,100.00
2023-03-11T06:33:30.941Z,100.00
2023-03-11T06:37:37.032Z,100.00
2023-03-11T06:41:42.120Z,100.00
2023-03-11T06:45:47.452Z,100.00
2023-03-11T06:49:51.488Z,100.00
2023-03-11T06:53:55.545Z,100.00
2023-03-11T06:58:01.205Z,100.00
2023-03-11T07:02:05.312Z,100.00
2023-03-11T07:06:13.730Z,100.00
2023-03-11T07:10:17.179Z,100.00
2023-03-11T07:14:21.962Z,100.00
2023-03-11T07:18:29.184Z,100.00
2023-03-11T07:22:32.860Z,100.00
2023-03-11T07:26:36.818Z,100.00
2023-03-11T07:30:41.991Z,100.00
2023-03-11T07:34:45.009Z,100.00
2023-03-11T07:38:48.769Z,100.00
2023-03-11T07:42:52.056Z,100.00
2023-03-11T07:46:58.460Z,100.00
2023-03-11T07:51:03.316Z,100.00
2023-03-11T07:55:07.231Z,100.00
2023-03-11T07:59:10.570Z,100.00
2023-03-11T08:03:15.165Z,100.00
2023-03-11T08:07:18.401Z,100.00
2023-03-11T08:11:23.078Z,100.00
2023-03-11T08:15:26.261Z,100.00
2023-03-11T08:19:30.915Z,100.00
2023-03-11T08:23:34.762Z,100.00
2023-03-11T08:27:39.138Z,100.00
2023-03-11T08:31:42.397Z,100.00
2023-03-11T08:35:46.958Z,100.00
2023-03-11T08:39:50.208Z,100.00
2023-03-11T08:43:53.377Z,100.00
2023-03-11T08:47:56.676Z,100.00
2023-03-11T08:52:02.383Z,100.00
2023-03-11T08:56:05.911Z,100.00
2023-03-11T09:00:12.702Z,100.00
2023-03-11T09:04:16.161Z,100.00
2023-03-11T09:08:20.798Z,100.00
2023-03-11T09:12:23.958Z,100.00
2023-03-11T09:16:27.161Z,100.00
2023-03-11T09:20:30.284Z,100.00
2023-03-11T09:24:36.730Z,100.00
2023-03-11T09:28:40.760Z,100.00
2023-03-11T09:32:43.933Z,100.00
2023-03-11T09:36:47.652Z,100.00
2023-03-11T09:41:01.677Z,100.00
2023-03-11T09:45:13.077Z,100.00
2023-03-11T09:49:23.728Z,100.00
2023-03-11T09:53:36.047Z,100.00
2023-03-11T09:57:40.727Z,100.00
2023-03-11T10:01:46.873Z,100.00
2023-03-11T10:05:51.513Z,100.00
2023-03-11T10:09:57.120Z,100.00
2023-03-11T10:14:12.700Z,100.00
2023-03-11T10:18:29.440Z,100.00
2023-03-11T10:22:39.296Z,100.00
2023-03-11T10:26:46.441Z,100.00
2023-03-11T10:30:55.634Z,100.00
2023-03-11T10:35:05.228Z,100.00
2023-03-11T10:39:11.880Z,100.00
2023-03-11T10:43:18.474Z,100.00
2023-03-11T10:47:25.389Z,100.00
2023-03-11T10:51:35.194Z,100.00
2023-03-11T10:55:47.640Z,100.00
2023-03-11T10:59:52.352Z,100.00
2023-03-11T11:03:59.507Z,100.00
2023-03-11T11:08:08.505Z,100.00
2023-03-11T11:12:15.927Z,100.00
2023-03-11T11:16:21.496Z,100.00
2023-03-11T11:20:27.584Z,100.00
2023-03-11T11:24:31.338Z,100.00
2023-03-11T11:28:35.446Z,100.00
2023-03-11T11:32:38.778Z,100.00
2023-03-11T11:36:43.280Z,100.00
2023-03-11T11:40:47.051Z,100.00
2023-03-11T11:44:55.335Z,100.00
2023-03-11T11:49:07.518Z,100.00
2023-03-11T11:53:26.145Z,100.00
2023-03-11T11:57:29.779Z,100.00
2023-03-11T12:01:41.499Z,100.00
2023-03-11T12:05:48.848Z,100.00
2023-03-11T12:10:12.990Z,100.00
2023-03-11T12:14:31.065Z,100.00
2023-03-11T12:18:39.135Z,100.00
2023-03-11T12:23:00.459Z,100.00
2023-03-11T12:27:16.544Z,100.00
2023-03-11T12:31:21.096Z,100.00
2023-03-11T12:35:27.722Z,100.00
2023-03-11T12:39:32.738Z,100.00
2023-03-11T12:44:03.528Z,100.00
2023-03-11T12:48:34.953Z,98.59
2023-03-11T12:52:54.269Z,99.07
2023-03-11T12:57:00.057Z,94.60
2023-03-11T13:01:46.767Z,96.20
2023-03-11T13:06:01.626Z,98.85
2023-03-11T13:10:13.482Z,98.82
2023-03-11T13:14:30.815Z,100.00
2023-03-11T13:18:34.130Z,99.64
2023-03-11T13:23:16.086Z,96.98
2023-03-11T13:27:40.301Z,89.09
2023-03-11T13:31:52.908Z,93.42
2023-03-11T13:36:07.381Z,92.63
2023-03-11T13:40:29.515Z,91.37
2023-03-11T13:44:36.362Z,96.04
2023-03-11T13:48:45.207Z,90.61
2023-03-11T13:52:50.463Z,84.00
2023-03-11T13:56:59.099Z,80.32
2023-03-11T14:01:03.633Z,78.43
2023-03-11T14:05:08.466Z,82.08
2023-03-11T14:09:20.468Z,70.91
2023-03-11T14:13:26.405Z,85.94
2023-03-11T14:17:29.530Z,76.36
2023-03-11T14:21:32.777Z,77.00
2023-03-11T14:25:38.478Z,69.79
2023-03-11T14:29:43.822Z,76.72
2023-03-11T14:33:56.161Z,74.66
2023-03-11T14:37:59.429Z,79.12
2023-03-11T14:42:13.750Z,67.62
2023-03-11T14:46:23.561Z,73.76
2023-03-11T14:50:27.852Z,65.38
2023-03-11T14:54:34.828Z,67.31
2023-03-11T14:58:41.499Z,71.05
2023-03-11T15:03:03.501Z,66.59
2023-03-11T15:07:07.220Z,69.55
2023-03-11T15:11:22.548Z,71.54
2023-03-11T15:15:27.940Z,72.14
2023-03-11T15:19:34.762Z,78.36
2023-03-11T15:23:38.041Z,74.52
2023-03-11T15:27:41.289Z,73.61
2023-03-11T15:31:46.768Z,66.16
2023-03-11T15:35:51.554Z,59.13
2023-03-11T15:39:59.514Z,77.32
2023-03-11T15:44:04.225Z,67.82
2023-03-11T15:48:07.438Z,73.21
2023-03-11T15:52:12.548Z,67.43
2023-03-11T15:56:23.418Z,73.21
2023-03-11T16:00:26.780Z,71.87
2023-03-11T16:04:30.280Z,61.29
2023-03-11T16:08:34.844Z,58.52
2023-03-11T16:12:39.274Z,66.74
2023-03-11T16:16:42.828Z,71.87
2023-03-11T16:20:48.891Z,69.61
2023-03-11T16:24:54.814Z,70.07
2023-03-11T16:29:06.143Z,61.03
2023-03-11T16:33:16.068Z,56.23
2023-03-11T16:37:21.474Z,58.64
2023-03-11T16:41:25.974Z,63.98
2023-03-11T16:45:29.286Z,73.41
2023-03-11T16:49:32.482Z,70.80
2023-03-11T16:53:35.573Z,73.13
2023-03-11T16:57:40.092Z,72.32
2023-03-11T17:01:43.583Z,78.18
2023-03-11T17:05:46.862Z,89.16
2023-03-11T17:09:50.009Z,91.08
2023-03-11T17:14:00.601Z,97.55
2023-03-11T17:18:09.550Z,100.00
2023-03-11T17:22:12.791Z,100.00
2023-03-11T17:26:18.162Z,100.00
2023-03-11T17:30:35.910Z,100.00
2023-03-11T17:34:39.341Z,100.00
2023-03-11T17:38:42.468Z,100.00
2023-03-11T17:42:45.634Z,100.00
2023-03-11T17:46:50.051Z,100.00
2023-03-11T17:50:53.183Z,100.00
2023-03-11T17:54:57.120Z,100.00
2023-03-11T17:59:00.492Z,100.00
2023-03-11T18:03:05.090Z,100.00
2023-03-11T18:07:08.500Z,100.00
2023-03-11T18:11:16.413Z,100.00
2023-03-11T18:15:22.761Z,100.00
2023-03-11T18:19:27.435Z,100.00
2023-03-11T18:23:33.145Z,100.00
2023-03-11T18:27:36.591Z,100.00
2023-03-11T18:31:40.715Z,100.00
2023-03-11T18:35:45.920Z,100.00
2023-03-11T18:39:48.937Z,100.00
2023-03-11T18:43:53.383Z,100.00
2023-03-11T18:47:56.513Z,100.00
2023-03-11T18:52:01.092Z,100.00
2023-03-11T18:56:11.963Z,100.00
2023-03-11T19:00:16.736Z,100.00
2023-03-11T19:04:19.928Z,100.00
2023-03-11T19:08:26.818Z,100.00
2023-03-11T19:12:32.526Z,100.00
2023-03-11T19:16:35.700Z,100.00
2023-03-11T19:20:39.117Z,100.00
2023-03-11T19:24:43.743Z,100.00
2023-03-11T19:28:47.607Z,100.00
2023-03-11T19:32:52.999Z,100.00
2023-03-11T19:36:56.179Z,100.00
2023-03-11T19:41:06.074Z,100.00
2023-03-11T19:45:09.949Z,100.00
2023-03-11T19:49:13.035Z,100.00
2023-03-11T19:53:16.968Z,100.00
2023-03-11T19:57:21.395Z,100.00
2023-03-11T20:01:25.351Z,100.00
2023-03-11T20:05:28.402Z,100.00
2023-03-11T20:09:32.746Z,100.00
2023-03-11T20:13:38.304Z,100.00
2023-03-11T20:17:41.566Z,100.00
2023-03-11T20:21:45.956Z,100.00
2023-03-11T20:25:49.318Z,100.00
2023-03-11T20:29:53.970Z,100.00
2023-03-11T20:33:58.266Z,100.00
2023-03-11T20:38:02.873Z,100.00
2023-03-11T20:42:06.515Z,100.00
2023-03-11T20:46:13.206Z,100.00
2023-03-11T20:50:16.868Z,100.00
2023-03-11T20:54:20.234Z,100.00
2023-03-11T20:58:23.719Z,100.00
2023-03-11T21:02:30.679Z,100.00
2023-03-11T21:06:36.066Z,100.00
2023-03-11T21:10:39.240Z,100.00
2023-03-11T21:14:42.576Z,100.00
2023-03-11T21:18:49.431Z,100.00
2023-03-11T21:22:53.033Z,100.00
2023-03-11T21:26:56.219Z,100.00
2023-03-11T21:31:00.653Z,100.00
2023-03-11T21:35:05.966Z,100.00
2023-03-11T21:39:09.256Z,100.00
2023-03-11T21:43:12.333Z,100.00
2023-03-11T21:47:15.614Z,100.00
2023-03-11T21:51:21.262Z,100.00
2023-03-11T21:55:24.497Z,100.00
2023-03-11T21:59:27.650Z,100.00
2023-03-11T22:03:35.384Z,100.00
2023-03-11T22:07:40.143Z,100.00
2023-03-11T22:11:43.865Z,100.00
2023-03-11T22:15:46.953Z,100.00
2023-03-11T22:19:50.173Z,100.00
2023-03-11T22:23:54.635Z,100.00
2023-03-11T22:27:57.698Z,100.00
2023-03-11T22:32:00.782Z,100.00
2023-03-11T22:36:04.852Z,100.00
2023-03-11T22:40:11.472Z,100.00
2023-03-11T22:44:14.468Z,100.00
2023-03-11T22:48:17.512Z,100.00
2023-03-11T22:52:20.552Z,100.00
2023-03-11T22:56:25.073Z,100.00
2023-03-11T23:00:28.136Z,100.00
2023-03-11T23:04:31.175Z,100.00
2023-03-11T23:08:34.297Z,100.00
2023-03-11T23:12:38.683Z,100.00
2023-03-11T23:16:42.391Z,100.00
2023-03-11T23:20:46.156Z,100.00
2023-03-11T23:24:49.262Z,100.00
2023-03-11T23:28:54.639Z,100.00
2023-03-11T23:32:57.860Z,100.00
2023-03-11T23:37:01.366Z,100.00
2023-03-11T23:41:07.551Z,100.00
2023-03-11T23:45:12.547Z,100.00
2023-03-11T23:49:15.564Z,100.00
2023-03-11T23:53:21.402Z,100.00
2023-03-11T23:57:24.449Z,100.00
